Weather at Elisuperficie Ospedale Madonna delle Grazie

Public forecast

Using degrees Celsius for public forecast. Weather courtesy of forecast.io.

Closest aviation weather report (METAR) to Elisuperficie Ospedale Madonna delle Grazie

Closest report is Gioia Del Colle Air Base, 16.1 nm (29.8 km) ENE.

2024/05/19 23:55 (retrieved 32 minutes ago)

LIBV 192355Z 14002KT 0500 FG OVC002 17/16 Q1012 RMK OVC VIS MIN 0500 WIND THR32 14002KT WIND THR14 16001KT RED

Closest aviation forecast (TAF) to Elisuperficie Ospedale Madonna delle Grazie

Forecast is more than 6 hours old.

Closest forecast is Foggia "Gino Lisa" Airport, 67.7 nm (125.3 km) NW.

2024/05/19 18:00 Ammendment (retrieved 6 hours ago)

TAF AMD LIBF 192210Z 1918/2018 CNL